Time;durP1;ratioP1;P1;durP2;ratioP2;P2;SDS_P1;SDS_P2;PMS_P1;PMS_P2;Temp;Humidity;BMP_temperature;BMP_pressure;BME280_temperature;BME280_humidity;BME280_pressure;Samples;Min_cycle;Max_cycle;Signal;HPM_P1;HPM_P2
2021/08/22 00:00:00;;;;;;;1.00;0.73;;;16.10;76.80;;;;;;5018102;27;95468;-52
2021/08/22 00:02:38;;;;;;;0.73;0.73;;;16.10;76.90;;;;;;5038838;27;95356;-54
2021/08/22 00:05:10;;;;;;;2.97;1.00;;;16.10;76.80;;;;;;5009848;28;95725;-54
2021/08/22 00:07:41;;;;;;;1.80;0.82;;;16.10;76.80;;;;;;5027202;27;95947;-55
2021/08/22 00:10:12;;;;;;;0.90;0.90;;;16.10;76.70;;;;;;5040563;27;95899;-52
2021/08/22 00:12:45;;;;;;;1.00;0.90;;;16.10;76.70;;;;;;5009091;28;95576;-53
2021/08/22 00:15:16;;;;;;;1.08;1.00;;;16.10;76.70;;;;;;5024234;28;95527;-54
2021/08/22 00:17:47;;;;;;;2.93;0.83;;;16.10;76.60;;;;;;5027847;27;95869;-54
2021/08/22 00:20:21;;;;;;;;;;;16.10;76.50;;;;;;5027430;27;95739;-54
2021/08/22 00:22:52;;;;;;;1.20;0.77;;;16.10;76.40;;;;;;5025075;27;95724;-53
2021/08/22 00:25:24;;;;;;;2.90;1.05;;;16.10;76.40;;;;;;5030123;28;95678;-54
2021/08/22 00:27:55;;;;;;;2.38;0.88;;;16.10;76.40;;;;;;5012737;27;97219;-53
2021/08/22 00:30:25;;;;;;;0.90;0.77;;;16.10;76.30;;;;;;5026679;27;95589;-51
2021/08/22 00:32:56;;;;;;;1.25;1.10;;;16.10;76.30;;;;;;5013341;28;95482;-54
2021/08/22 00:35:27;;;;;;;0.75;0.75;;;16.10;76.30;;;;;;5031878;28;95234;-55
2021/08/22 00:38:00;;;;;;;2.13;1.02;;;16.10;76.20;;;;;;5032381;27;96825;-54
2021/08/22 00:40:30;;;;;;;0.95;0.90;;;16.10;76.20;;;;;;5030664;28;95547;-56
2021/08/22 00:43:07;;;;;;;1.40;0.90;;;16.10;76.30;;;;;;5028285;27;95785;-52
2021/08/22 00:45:38;;;;;;;1.10;0.93;;;16.10;76.20;;;;;;5012204;28;95409;-54
2021/08/22 00:48:10;;;;;;;1.02;0.95;;;16.10;76.30;;;;;;5030269;27;97668;-51
2021/08/22 00:50:40;;;;;;;0.75;0.75;;;16.20;76.40;;;;;;5030339;27;96208;-53
2021/08/22 00:53:11;;;;;;;2.28;1.35;;;16.10;76.30;;;;;;5030412;27;95275;-52
2021/08/22 00:55:43;;;;;;;1.70;0.93;;;16.20;76.30;;;;;;5030373;27;95275;-53
2021/08/22 00:58:12;;;;;;;1.00;1.00;;;16.10;76.30;;;;;;5028396;27;96429;-54
2021/08/22 01:00:42;;;;;;;1.08;0.85;;;16.10;76.30;;;;;;5024822;28;95988;-53
2021/08/22 01:03:23;;;;;;;2.25;0.98;;;16.20;76.50;;;;;;5027942;27;95629;-53
2021/08/22 01:06:15;;;;;;;1.13;1.03;;;16.20;76.40;;;;;;5025798;28;95690;-53
2021/08/22 01:08:57;;;;;;;1.25;1.15;;;16.20;76.40;;;;;;5029378;27;98963;-54
2021/08/22 01:11:31;;;;;;;1.55;0.90;;;16.20;76.50;;;;;;5042525;27;95710;-56
2021/08/22 01:14:05;;;;;;;2.85;1.30;;;16.20;76.60;;;;;;5012175;27;95676;-52
2021/08/22 01:16:42;;;;;;;3.25;1.15;;;16.20;76.50;;;;;;5021409;27;95732;-55
2021/08/22 01:19:48;;;;;;;1.60;1.08;;;16.30;76.50;;;;;;5026527;27;95936;-54
2021/08/22 01:22:22;;;;;;;1.05;0.70;;;16.30;76.50;;;;;;4985902;27;95572;-51
2021/08/22 01:24:55;;;;;;;1.63;1.00;;;16.20;76.50;;;;;;5030805;27;95731;-52
2021/08/22 01:27:27;;;;;;;2.72;1.00;;;16.30;76.50;;;;;;5031023;28;95754;-50
2021/08/22 01:30:08;;;;;;;1.33;1.00;;;16.30;76.40;;;;;;5034303;27;95893;-54
2021/08/22 01:32:40;;;;;;;;;;;16.30;76.40;;;;;;5028603;28;95762;-54
2021/08/22 01:35:19;;;;;;;0.88;0.88;;;16.30;76.40;;;;;;5045847;27;95726;-54
2021/08/22 01:37:52;;;;;;;2.08;1.05;;;16.40;76.40;;;;;;5030670;28;95653;-54
2021/08/22 01:40:23;;;;;;;1.00;0.82;;;16.40;76.40;;;;;;5029280;27;96885;-51
2021/08/22 01:42:55;;;;;;;1.42;1.08;;;16.40;76.40;;;;;;5029922;28;95893;-54
2021/08/22 01:45:26;;;;;;;;;;;16.40;76.30;;;;;;5017342;27;95703;-55
2021/08/22 01:47:56;;;;;;;1.08;0.93;;;16.50;76.40;;;;;;5028297;28;95588;-56
2021/08/22 01:50:27;;;;;;;0.73;0.73;;;16.50;76.30;;;;;;5026937;27;95843;-52
2021/08/22 01:53:04;;;;;;;1.85;1.00;;;16.50;76.30;;;;;;5026172;27;96014;-53
2021/08/22 01:55:36;;;;;;;2.15;1.30;;;16.50;76.30;;;;;;5028888;27;97069;-53
2021/08/22 01:58:06;;;;;;;;;;;16.50;77.00;;;;;;5010651;28;95377;-51
2021/08/22 02:00:38;;;;;;;1.23;1.10;;;16.60;76.30;;;;;;5022461;27;95778;-57
2021/08/22 02:03:41;;;;;;;1.67;1.15;;;16.60;76.20;;;;;;5027233;28;95736;-55
2021/08/22 02:06:38;;;;;;;1.25;1.15;;;16.60;76.20;;;;;;5013793;27;95933;-50
2021/08/22 02:09:10;;;;;;;1.95;0.98;;;16.70;76.40;;;;;;5001686;27;95414;-57
2021/08/22 02:11:46;;;;;;;1.60;1.00;;;16.70;76.60;;;;;;5042498;27;96394;-55
2021/08/22 02:14:18;;;;;;;2.97;1.08;;;16.70;76.50;;;;;;5027645;27;95935;-51
2021/08/22 02:16:56;;;;;;;3.08;1.02;;;16.80;76.30;;;;;;5024485;27;95595;-57
2021/08/22 02:19:27;;;;;;;1.45;1.20;;;16.80;76.20;;;;;;5023507;27;95775;-57
2021/08/22 02:21:59;;;;;;;8.45;1.20;;;16.80;76.10;;;;;;5023449;27;95886;-57
2021/08/22 02:24:29;;;;;;;;;;;16.80;75.90;;;;;;5027695;27;95337;-57
2021/08/22 02:27:01;;;;;;;5.43;1.40;;;16.90;75.80;;;;;;5029739;27;95986;-57
2021/08/22 02:29:32;;;;;;;1.30;0.97;;;16.90;76.10;;;;;;5011130;28;95757;-52
2021/08/22 02:32:04;;;;;;;1.73;0.80;;;17.00;75.80;;;;;;5025937;27;96484;-59
2021/08/22 02:34:35;;;;;;;1.65;0.93;;;17.00;75.80;;;;;;5028936;27;95979;-57
2021/08/22 02:37:06;;;;;;;1.55;1.20;;;17.00;75.80;;;;;;5024142;27;95319;-57
2021/08/22 02:39:38;;;;;;;1.48;1.35;;;17.10;71.80;;;;;;5020306;27;95871;-53
2021/08/22 02:42:09;;;;;;;3.08;1.20;;;17.30;71.90;;;;;;5023012;27;95884;-58
2021/08/22 02:44:41;;;;;;;3.28;1.00;;;17.50;65.50;;;;;;5019520;28;100080;-56
2021/08/22 02:47:11;;;;;;;2.70;1.33;;;17.50;69.00;;;;;;5018690;28;96141;-54
2021/08/22 02:49:42;;;;;;;1.57;1.10;;;17.60;67.50;;;;;;5049736;27;96053;-54
2021/08/22 02:52:13;;;;;;;1.70;0.83;;;17.70;66.00;;;;;;5028509;27;96001;-53
2021/08/22 02:54:45;;;;;;;1.60;0.90;;;17.90;63.20;;;;;;5024957;27;95814;-53
2021/08/22 02:57:18;;;;;;;2.30;1.20;;;18.20;61.30;;;;;;5009680;28;98198;-51
2021/08/22 02:59:49;;;;;;;2.00;1.30;;;18.30;61.20;;;;;;5033289;27;95635;-53
2021/08/22 03:02:20;;;;;;;2.00;1.00;;;18.40;61.00;;;;;;5022804;28;95891;-54
2021/08/22 03:04:51;;;;;;;0.60;0.60;;;18.50;58.70;;;;;;5043591;27;97312;-55
2021/08/22 03:07:22;;;;;;;1.63;1.00;;;18.60;59.10;;;;;;5029366;28;95744;-54
2021/08/22 03:09:53;;;;;;;1.40;0.93;;;18.60;60.30;;;;;;5031236;27;96011;-53
2021/08/22 03:12:24;;;;;;;2.35;0.77;;;18.50;60.90;;;;;;5027113;28;96547;-56
2021/08/22 03:14:54;;;;;;;2.70;0.80;;;18.60;59.30;;;;;;5028418;27;95752;-50
2021/08/22 03:17:30;;;;;;;0.90;0.70;;;18.70;59.70;;;;;;5018953;27;95457;-57
2021/08/22 03:20:04;;;;;;;1.27;0.90;;;18.70;60.10;;;;;;5025344;27;95370;-57
2021/08/22 03:22:35;;;;;;;1.70;0.82;;;18.70;60.40;;;;;;5023099;27;95888;-58
2021/08/22 03:25:06;;;;;;;3.03;0.95;;;18.80;59.50;;;;;;5022954;27;95718;-55
2021/08/22 03:27:38;;;;;;;1.95;1.17;;;18.90;59.50;;;;;;5042184;27;95815;-58
2021/08/22 03:30:09;;;;;;;0.77;0.70;;;18.90;59.90;;;;;;5036643;27;95738;-54
2021/08/22 03:32:44;;;;;;;2.75;0.93;;;19.00;59.70;;;;;;5042008;27;105950;-55
2021/08/22 03:35:15;;;;;;;1.60;0.70;;;19.00;58.90;;;;;;5019898;27;95490;-58
2021/08/22 03:37:46;;;;;;;1.23;0.90;;;19.10;58.20;;;;;;5025199;27;95937;-53
2021/08/22 03:40:17;;;;;;;1.20;1.08;;;19.10;58.20;;;;;;5010386;28;95947;-52
2021/08/22 03:42:48;;;;;;;2.38;0.90;;;19.20;56.80;;;;;;5006871;27;96530;-51
2021/08/22 03:45:21;;;;;;;1.88;1.05;;;19.30;57.00;;;;;;5010813;27;96440;-56
2021/08/22 03:47:52;;;;;;;1.50;0.90;;;19.30;57.10;;;;;;5021740;27;95925;-50
2021/08/22 03:50:24;;;;;;;1.20;1.10;;;19.40;56.30;;;;;;5025263;27;95934;-57
2021/08/22 03:52:54;;;;;;;2.60;0.95;;;19.40;56.60;;;;;;5006677;28;96566;-57
2021/08/22 03:55:25;;;;;;;1.98;1.00;;;19.40;57.70;;;;;;5028076;27;97279;-54
2021/08/22 03:57:58;;;;;;;2.75;1.08;;;19.40;58.00;;;;;;5042154;27;95844;-52
2021/08/22 04:00:28;;;;;;;2.20;1.10;;;19.40;57.70;;;;;;5024839;27;95686;-52
2021/08/22 04:02:58;;;;;;;0.95;0.80;;;19.50;57.50;;;;;;5029160;27;102289;-53
2021/08/22 04:05:49;;;;;;;0.80;0.80;;;19.60;57.00;;;;;;5030786;27;98674;-58
2021/08/22 04:08:24;;;;;;;;;;;19.60;56.20;;;;;;5030994;27;95800;-58
2021/08/22 04:10:55;;;;;;;1.67;0.77;;;19.60;57.10;;;;;;5048251;27;95852;-54
2021/08/22 04:13:26;;;;;;;1.40;1.23;;;19.60;56.90;;;;;;5031686;28;96222;-53
2021/08/22 04:15:57;;;;;;;1.48;0.90;;;19.70;57.00;;;;;;5026773;27;95403;-58
2021/08/22 04:18:29;;;;;;;0.95;0.90;;;19.70;57.30;;;;;;5030731;28;95223;-57
2021/08/22 04:21:01;;;;;;;0.77;0.77;;;19.80;55.70;;;;;;5030637;27;95717;-53
2021/08/22 04:23:32;;;;;;;1.67;0.93;;;19.80;56.60;;;;;;5025646;28;96489;-50
2021/08/22 04:26:02;;;;;;;1.20;0.93;;;19.80;56.20;;;;;;5031074;28;95343;-53
2021/08/22 04:28:33;;;;;;;;;;;19.80;56.20;;;;;;5032480;27;95877;-59
2021/08/22 04:31:04;;;;;;;2.13;1.10;;;19.90;56.20;;;;;;5028414;27;95853;-54
2021/08/22 04:33:36;;;;;;;1.88;1.15;;;19.90;53.60;;;;;;5032027;27;96661;-58
2021/08/22 04:36:07;;;;;;;2.20;1.20;;;19.90;55.20;;;;;;5028543;28;95837;-57
2021/08/22 04:38:38;;;;;;;;;;;19.90;55.00;;;;;;5046375;27;96218;-53
2021/08/22 04:41:15;;;;;;;0.83;0.83;;;19.90;55.50;;;;;;5033316;28;95845;-50
2021/08/22 04:43:52;;;;;;;2.65;1.10;;;19.90;56.10;;;;;;5041690;27;97215;-57
2021/08/22 04:46:23;;;;;;;1.10;1.00;;;19.90;56.20;;;;;;5016346;28;98534;-56
2021/08/22 04:48:54;;;;;;;0.93;0.93;;;19.90;56.50;;;;;;5030824;27;95248;-49
2021/08/22 04:51:25;;;;;;;1.63;1.00;;;19.90;56.40;;;;;;5030510;27;97984;-57
2021/08/22 04:53:57;;;;;;;1.27;1.00;;;19.90;56.70;;;;;;5028005;27;97317;-54
2021/08/22 04:56:28;;;;;;;1.10;0.90;;;19.90;56.70;;;;;;5030743;28;95677;-56
2021/08/22 04:58:58;;;;;;;1.90;1.02;;;20.00;55.30;;;;;;5031844;27;95578;-53
2021/08/22 05:01:27;;;;;;;3.05;1.13;;;20.00;55.40;;;;;;5025796;27;95408;-52
2021/08/22 05:03:58;;;;;;;3.33;1.35;;;20.00;56.50;;;;;;5030267;27;95842;-51
2021/08/22 05:06:28;;;;;;;1.95;1.30;;;20.00;56.80;;;;;;5030854;28;95255;-54
2021/08/22 05:09:00;;;;;;;1.40;1.30;;;20.00;56.00;;;;;;5042998;27;95841;-53
2021/08/22 05:11:31;;;;;;;1.00;0.90;;;20.00;55.90;;;;;;5039978;27;95784;-53
2021/08/22 05:14:02;;;;;;;2.38;1.02;;;20.00;54.90;;;;;;5023948;27;96483;-50
2021/08/22 05:16:34;;;;;;;3.72;1.15;;;20.00;54.40;;;;;;5022289;27;95835;-52
2021/08/22 05:19:05;;;;;;;;;;;20.00;55.00;;;;;;5028565;27;95571;-52
2021/08/22 05:21:36;;;;;;;1.43;0.90;;;20.00;54.80;;;;;;5032031;27;96035;-51
2021/08/22 05:24:07;;;;;;;4.95;1.23;;;19.90;55.20;;;;;;5031984;27;95954;-53
2021/08/22 05:26:38;;;;;;;3.57;1.33;;;19.90;56.30;;;;;;5009694;28;97837;-58
2021/08/22 05:29:09;;;;;;;4.25;1.35;;;20.00;55.70;;;;;;5025499;27;95550;-55
2021/08/22 05:31:40;;;;;;;;;;;19.90;56.40;;;;;;5022476;27;95227;-50
2021/08/22 05:34:10;;;;;;;1.23;1.10;;;19.90;55.30;;;;;;5029176;27;95811;-53
2021/08/22 05:36:42;;;;;;;1.52;1.40;;;19.90;56.40;;;;;;5025173;27;95710;-51
2021/08/22 05:39:13;;;;;;;4.35;1.20;;;19.90;56.50;;;;;;5029397;27;95641;-54
2021/08/22 05:41:45;;;;;;;2.95;1.20;;;19.90;56.70;;;;;;5028896;27;95678;-57
2021/08/22 05:44:16;;;;;;;4.03;1.00;;;19.90;56.30;;;;;;5020538;27;95945;-53
2021/08/22 05:46:45;;;;;;;2.35;1.13;;;19.80;57.20;;;;;;5015493;28;95736;-55
2021/08/22 05:49:15;;;;;;;2.60;1.00;;;19.80;56.70;;;;;;5030218;28;98410;-54
2021/08/22 05:51:45;;;;;;;4.55;1.58;;;19.80;57.60;;;;;;5030803;27;96104;-52
2021/08/22 05:54:16;;;;;;;4.07;1.40;;;19.80;58.30;;;;;;5045048;27;96317;-53
2021/08/22 05:56:47;;;;;;;1.83;1.20;;;19.80;58.00;;;;;;5028721;27;95978;-52
2021/08/22 05:59:18;;;;;;;1.23;1.13;;;19.80;57.90;;;;;;5028812;28;96341;-52
2021/08/22 06:01:48;;;;;;;2.50;1.23;;;19.80;58.20;;;;;;5025173;27;95358;-53
2021/08/22 06:04:18;;;;;;;2.03;1.30;;;19.70;58.40;;;;;;5029804;28;95851;-52
2021/08/22 06:06:48;;;;;;;1.42;1.30;;;19.80;58.20;;;;;;5029896;27;95580;-55
2021/08/22 06:09:23;;;;;;;1.80;1.15;;;19.70;58.30;;;;;;5030629;28;95779;-54
2021/08/22 06:11:53;;;;;;;2.72;1.70;;;19.70;58.20;;;;;;5030292;27;95347;-50
2021/08/22 06:14:24;;;;;;;1.20;1.10;;;19.70;58.40;;;;;;5029211;28;96216;-50
2021/08/22 06:16:55;;;;;;;1.40;1.20;;;19.70;58.50;;;;;;5022806;27;96977;-54
2021/08/22 06:19:26;;;;;;;4.07;1.30;;;19.70;58.90;;;;;;5029848;28;95182;-53
2021/08/22 06:21:57;;;;;;;2.25;1.58;;;19.60;58.90;;;;;;5029289;27;95615;-58
2021/08/22 06:24:28;;;;;;;2.57;1.00;;;19.60;59.30;;;;;;5028658;28;96180;-54
2021/08/22 06:26:59;;;;;;;1.42;1.33;;;19.60;59.60;;;;;;5045353;27;98423;-58
2021/08/22 06:29:30;;;;;;;2.92;1.45;;;19.50;59.60;;;;;;5010940;28;96821;-53
2021/08/22 06:32:02;;;;;;;2.88;1.67;;;19.50;60.20;;;;;;5024116;27;95698;-57
2021/08/22 06:34:34;;;;;;;4.90;1.40;;;19.50;60.20;;;;;;5028278;28;96381;-54
2021/08/22 06:37:05;;;;;;;1.00;1.00;;;19.50;60.10;;;;;;5029624;27;95634;-53
2021/08/22 06:39:41;;;;;;;1.60;1.25;;;19.50;60.40;;;;;;5023496;28;96334;-53
2021/08/22 06:42:15;;;;;;;1.27;1.17;;;19.50;60.30;;;;;;5029552;27;96409;-54
2021/08/22 06:44:46;;;;;;;1.85;1.23;;;19.40;60.20;;;;;;5022869;27;95968;-58
2021/08/22 06:47:16;;;;;;;4.43;1.80;;;19.40;60.00;;;;;;5006481;28;96652;-58
2021/08/22 06:49:46;;;;;;;3.58;1.20;;;19.40;60.30;;;;;;5021988;27;95834;-55
2021/08/22 06:52:17;;;;;;;2.17;1.48;;;19.40;60.60;;;;;;5030597;27;95820;-54
2021/08/22 06:54:50;;;;;;;1.90;1.10;;;19.30;60.70;;;;;;5028376;28;96320;-56
2021/08/22 06:57:19;;;;;;;4.20;1.30;;;19.30;60.90;;;;;;5028722;27;95755;-55
2021/08/22 06:59:50;;;;;;;1.45;1.08;;;19.30;61.20;;;;;;5019208;27;95224;-59
2021/08/22 07:02:20;;;;;;;1.20;1.10;;;19.30;61.00;;;;;;5018812;27;95687;-57
2021/08/22 07:04:50;;;;;;;1.60;1.27;;;19.30;60.50;;;;;;5026991;27;95878;-56
2021/08/22 07:07:21;;;;;;;3.08;1.30;;;19.30;60.60;;;;;;5020985;27;95849;-56
2021/08/22 07:09:53;;;;;;;2.53;1.65;;;19.30;61.00;;;;;;5019162;27;95942;-55
2021/08/22 07:12:24;;;;;;;1.60;1.23;;;19.20;61.40;;;;;;5029548;28;95698;-56
2021/08/22 07:14:54;;;;;;;2.97;1.30;;;19.20;61.10;;;;;;5034322;27;95828;-57
2021/08/22 07:17:25;;;;;;;2.88;1.23;;;19.20;61.40;;;;;;5023629;28;95347;-54
2021/08/22 07:19:56;;;;;;;2.97;1.50;;;19.20;60.70;;;;;;5023918;27;95485;-54
2021/08/22 07:22:27;;;;;;;3.45;1.80;;;19.20;61.20;;;;;;5022941;27;96011;-58
2021/08/22 07:24:59;;;;;;;2.63;1.40;;;19.20;61.50;;;;;;5023654;27;96586;-59
2021/08/22 07:27:29;;;;;;;;;;;19.10;61.50;;;;;;5013672;27;95314;-54
2021/08/22 07:30:00;;;;;;;3.90;1.67;;;19.10;61.70;;;;;;5015858;27;96010;-56
2021/08/22 07:32:31;;;;;;;;;;;19.10;61.90;;;;;;5020409;27;96197;-56
2021/08/22 07:35:03;;;;;;;1.15;1.05;;;19.10;61.80;;;;;;5023675;27;96660;-57
2021/08/22 07:37:36;;;;;;;2.20;1.58;;;19.10;61.30;;;;;;5016543;27;95709;-56
2021/08/22 07:40:07;;;;;;;;;;;19.00;61.50;;;;;;5027535;27;95935;-56
2021/08/22 07:42:38;;;;;;;3.70;1.35;;;19.00;61.50;;;;;;5024630;27;95782;-54
2021/08/22 07:45:10;;;;;;;1.98;1.25;;;19.00;61.70;;;;;;5019682;27;96697;-57
2021/08/22 07:47:44;;;;;;;4.07;1.52;;;19.00;61.00;;;;;;5021126;27;96009;-56
2021/08/22 07:50:14;;;;;;;1.40;1.30;;;19.00;61.00;;;;;;5027585;27;96020;-56
2021/08/22 07:52:46;;;;;;;2.90;1.85;;;19.00;62.30;;;;;;5031860;28;95615;-59
2021/08/22 07:55:18;;;;;;;3.75;1.85;;;18.90;61.70;;;;;;5031177;27;96404;-57
2021/08/22 07:57:47;;;;;;;13.03;9.53;;;18.90;62.00;;;;;;5011657;28;97348;-59
2021/08/22 08:00:18;;;;;;;32.67;21.02;;;18.90;61.90;;;;;;5030000;27;98893;-60
2021/08/22 08:02:48;;;;;;;27.23;18.13;;;18.90;61.30;;;;;;5013212;28;95920;-59
2021/08/22 08:05:21;;;;;;;28.27;19.08;;;18.80;61.70;;;;;;5031530;27;95943;-58
2021/08/22 08:07:53;;;;;;;29.80;19.50;;;18.80;61.90;;;;;;5029262;28;95533;-59
2021/08/22 08:10:24;;;;;;;61.22;35.17;;;18.80;62.40;;;;;;5031030;27;95377;-58
2021/08/22 08:12:56;;;;;;;49.47;31.25;;;18.80;61.70;;;;;;5029308;28;95694;-59
2021/08/22 08:15:28;;;;;;;36.85;25.33;;;18.80;62.00;;;;;;5025351;27;96781;-55
2021/08/22 08:18:03;;;;;;;23.10;14.43;;;18.70;61.90;;;;;;5030555;28;96213;-61
2021/08/22 08:20:34;;;;;;;17.10;11.25;;;18.70;61.80;;;;;;5025364;27;95596;-57
2021/08/22 08:23:05;;;;;;;16.17;12.65;;;18.70;62.00;;;;;;5031087;28;95743;-55
2021/08/22 08:25:35;;;;;;;36.17;26.90;;;18.70;63.00;;;;;;5031389;27;95884;-55
2021/08/22 08:28:07;;;;;;;19.77;14.80;;;18.70;63.10;;;;;;5009635;27;96755;-56
2021/08/22 08:30:37;;;;;;;25.30;18.35;;;18.70;62.20;;;;;;5019606;27;95705;-61
2021/08/22 08:33:10;;;;;;;15.85;12.02;;;18.70;62.30;;;;;;5020254;27;95780;-57
2021/08/22 08:35:41;;;;;;;23.25;16.73;;;18.60;62.20;;;;;;5025877;27;96036;-57
2021/08/22 08:38:15;;;;;;;19.75;15.35;;;18.60;62.70;;;;;;5013080;28;95983;-54
2021/08/22 08:40:46;;;;;;;21.37;13.27;;;18.60;63.10;;;;;;5031192;28;96104;-56
2021/08/22 08:43:17;;;;;;;;;;;18.60;63.90;;;;;;5011930;27;95911;-57
2021/08/22 08:46:04;;;;;;;6.93;6.18;;;18.60;63.60;;;;;;5014964;27;96421;-56
2021/08/22 08:48:39;;;;;;;10.25;8.02;;;18.60;63.20;;;;;;5029205;27;95570;-58
2021/08/22 08:51:40;;;;;;;11.32;7.05;;;18.50;63.70;;;;;;5031008;28;95285;-57
2021/08/22 08:54:34;;;;;;;9.63;6.85;;;18.50;64.40;;;;;;5029758;28;95758;-58
2021/08/22 08:57:05;;;;;;;12.98;7.60;;;18.50;64.70;;;;;;5029325;27;95948;-58
2021/08/22 08:59:39;;;;;;;10.57;7.35;;;18.50;65.30;;;;;;5018578;27;96119;-57
2021/08/22 09:02:10;;;;;;;7.65;5.18;;;18.50;65.30;;;;;;5023667;27;95788;-60
2021/08/22 09:04:49;;;;;;;7.70;5.20;;;18.50;64.70;;;;;;5043172;27;96605;-57
2021/08/22 09:07:33;;;;;;;8.40;4.57;;;18.50;65.10;;;;;;5028869;27;96028;-56
2021/08/22 09:10:24;;;;;;;8.18;4.38;;;18.40;64.20;;;;;;5018400;27;95714;-57
2021/08/22 09:13:21;;;;;;;4.75;3.28;;;18.40;64.50;;;;;;5029652;27;95747;-57
2021/08/22 09:16:09;;;;;;;5.07;3.45;;;18.40;64.00;;;;;;5007483;28;95656;-56
2021/08/22 09:19:17;;;;;;;6.57;4.75;;;18.40;64.90;;;;;;5029997;27;95915;-55
2021/08/22 09:22:14;;;;;;;6.25;3.67;;;18.30;66.10;;;;;;5010732;28;96023;-56
2021/08/22 09:25:11;;;;;;;10.25;3.45;;;18.30;64.70;;;;;;5017783;28;95742;-54
2021/08/22 09:28:08;;;;;;;4.72;3.70;;;18.30;65.30;;;;;;5030864;28;95864;-54
2021/08/22 09:31:09;;;;;;;4.43;3.92;;;18.30;66.10;;;;;;5025639;28;96016;-56
2021/08/22 09:34:19;;;;;;;14.38;10.65;;;18.20;65.70;;;;;;5030127;27;95686;-54
2021/08/22 09:37:07;;;;;;;55.45;37.78;;;18.30;66.10;;;;;;5027736;27;95518;-56
2021/08/22 09:40:16;;;;;;;65.63;45.25;;;18.20;66.10;;;;;;5011964;28;95679;-55
2021/08/22 09:43:14;;;;;;;65.35;43.72;;;18.20;65.70;;;;;;5021135;27;96452;-53
2021/08/22 09:46:05;;;;;;;37.70;26.55;;;18.20;66.20;;;;;;4996745;27;95963;-55
2021/08/22 09:49:02;;;;;;;34.40;23.85;;;18.20;67.30;;;;;;5007626;27;96662;-56
2021/08/22 09:51:52;;;;;;;31.80;21.02;;;18.20;67.40;;;;;;5019617;27;95558;-57
2021/08/22 09:55:07;;;;;;;29.30;19.25;;;18.20;67.70;;;;;;5026637;27;95851;-56
2021/08/22 09:58:10;;;;;;;26.55;18.55;;;18.20;67.90;;;;;;5014646;27;95920;-56
2021/08/22 10:01:08;;;;;;;24.13;16.77;;;18.30;68.00;;;;;;5021037;27;96122;-54
2021/08/22 10:04:09;;;;;;;22.13;16.33;;;18.20;68.20;;;;;;5028318;28;95555;-56
2021/08/22 10:06:59;;;;;;;22.40;15.68;;;18.20;68.20;;;;;;5028615;27;95845;-52
2021/08/22 10:09:57;;;;;;;18.70;13.70;;;18.30;68.30;;;;;;5028028;27;95833;-55
2021/08/22 10:12:27;;;;;;;18.83;13.55;;;18.30;68.60;;;;;;5028356;28;95524;-57
2021/08/22 10:14:57;;;;;;;18.88;13.57;;;18.30;68.80;;;;;;5029013;27;95231;-57
2021/08/22 10:17:29;;;;;;;16.25;12.07;;;18.30;68.70;;;;;;5027653;28;96636;-57
2021/08/22 10:20:01;;;;;;;14.20;12.23;;;18.20;68.80;;;;;;5024988;27;95673;-58
2021/08/22 10:22:34;;;;;;;18.15;12.30;;;18.20;69.00;;;;;;5029490;28;95702;-58
2021/08/22 10:25:13;;;;;;;14.40;9.98;;;18.20;69.00;;;;;;5027902;27;97911;-57
2021/08/22 10:27:48;;;;;;;15.05;10.90;;;18.20;69.40;;;;;;5025549;27;95943;-58
2021/08/22 10:30:20;;;;;;;14.25;9.93;;;18.20;69.50;;;;;;5014525;27;95677;-57
2021/08/22 10:33:00;;;;;;;14.43;9.30;;;18.20;69.60;;;;;;5021008;27;95256;-57
2021/08/22 10:35:31;;;;;;;12.43;9.48;;;18.20;70.10;;;;;;5021046;27;95769;-57
2021/08/22 10:38:24;;;;;;;16.58;9.15;;;18.20;70.10;;;;;;5021364;27;96566;-56
2021/08/22 10:40:56;;;;;;;12.07;9.05;;;18.20;70.30;;;;;;5029291;27;95650;-55
2021/08/22 10:43:27;;;;;;;11.88;8.05;;;18.20;70.50;;;;;;5023170;27;95342;-56
2021/08/22 10:45:59;;;;;;;16.40;8.55;;;18.20;69.90;;;;;;5012356;27;97238;-54
2021/08/22 10:48:30;;;;;;;;;;;18.20;70.30;;;;;;5026035;27;96043;-56
2021/08/22 10:51:04;;;;;;;9.32;7.40;;;18.20;70.30;;;;;;5024390;27;95989;-57
2021/08/22 10:53:37;;;;;;;9.15;6.70;;;18.20;70.40;;;;;;5017103;27;95747;-56
2021/08/22 10:56:23;;;;;;;9.93;6.80;;;18.20;70.30;;;;;;5026269;27;95714;-56
2021/08/22 10:58:59;;;;;;;8.40;6.30;;;18.20;70.30;;;;;;5005694;28;96601;-57
2021/08/22 11:01:30;;;;;;;8.63;6.28;;;18.10;70.30;;;;;;5019189;27;96099;-56
2021/08/22 11:04:06;;;;;;;9.15;6.38;;;18.10;70.30;;;;;;5025233;27;95799;-58
2021/08/22 11:06:55;;;;;;;7.47;6.30;;;18.10;70.40;;;;;;5022509;27;95899;-58
2021/08/22 11:09:45;;;;;;;8.88;6.45;;;18.10;70.40;;;;;;5019452;27;96029;-58
2021/08/22 11:12:22;;;;;;;9.77;6.60;;;18.10;70.50;;;;;;5032780;27;96076;-58
2021/08/22 11:14:54;;;;;;;5.90;5.20;;;18.10;70.30;;;;;;5018059;27;95745;-58
2021/08/22 11:17:27;;;;;;;8.15;6.05;;;18.00;70.20;;;;;;5014646;27;95287;-58
2021/08/22 11:20:10;;;;;;;7.43;5.80;;;18.00;70.20;;;;;;5016915;27;96530;-58
2021/08/22 11:22:42;;;;;;;6.22;5.38;;;18.00;70.10;;;;;;5024104;27;96122;-59
2021/08/22 11:25:13;;;;;;;6.38;5.40;;;18.00;70.20;;;;;;5016021;27;95446;-58
2021/08/22 11:27:45;;;;;;;7.70;5.55;;;18.00;70.20;;;;;;5014795;27;95690;-58
2021/08/22 11:30:15;;;;;;;5.68;4.60;;;18.00;70.20;;;;;;5007564;27;95857;-57
2021/08/22 11:32:52;;;;;;;6.10;4.80;;;18.00;70.20;;;;;;5016610;27;101778;-58
2021/08/22 11:35:24;;;;;;;6.43;4.60;;;18.00;70.10;;;;;;5005636;28;95319;-58
2021/08/22 11:37:59;;;;;;;6.50;5.03;;;18.00;70.10;;;;;;5010337;27;95593;-58
2021/08/22 11:40:32;;;;;;;5.30;4.68;;;18.00;70.10;;;;;;5028045;27;95673;-59
2021/08/22 11:43:07;;;;;;;5.85;4.10;;;17.90;70.10;;;;;;5013701;27;95705;-57
2021/08/22 11:45:44;;;;;;;5.50;4.35;;;17.90;70.10;;;;;;5003506;27;95940;-57
2021/08/22 11:48:22;;;;;;;4.10;3.70;;;17.90;70.10;;;;;;5015423;27;95959;-54
2021/08/22 11:50:59;;;;;;;3.55;3.25;;;17.90;70.70;;;;;;5016941;27;95850;-55
2021/08/22 11:53:32;;;;;;;4.60;3.35;;;17.90;70.00;;;;;;5016195;27;95985;-58
2021/08/22 11:56:03;;;;;;;4.30;3.42;;;17.90;70.00;;;;;;5020927;27;95928;-58
2021/08/22 11:58:36;;;;;;;4.15;3.08;;;17.90;69.90;;;;;;5016448;27;95699;-59
2021/08/22 12:01:21;;;;;;;4.32;3.33;;;17.90;70.00;;;;;;5001819;27;96173;-59
2021/08/22 12:04:03;;;;;;;6.20;3.80;;;17.90;70.00;;;;;;5013713;27;95779;-59
2021/08/22 12:06:34;;;;;;;3.75;3.45;;;17.80;69.90;;;;;;5019918;27;95311;-57
2021/08/22 12:09:04;;;;;;;5.65;3.38;;;17.80;69.80;;;;;;5033395;27;95617;-57
2021/08/22 12:11:36;;;;;;;3.80;3.38;;;17.80;69.80;;;;;;5014376;27;95933;-58
2021/08/22 12:14:19;;;;;;;3.40;3.08;;;17.80;69.90;;;;;;5017903;27;95992;-57
2021/08/22 12:16:58;;;;;;;4.25;3.30;;;17.80;69.80;;;;;;5009574;27;95964;-56
2021/08/22 12:19:32;;;;;;;4.40;3.53;;;17.80;70.00;;;;;;5014703;27;95800;-57
2021/08/22 12:22:10;;;;;;;3.83;3.42;;;17.80;69.90;;;;;;5023377;27;96665;-57
2021/08/22 12:24:48;;;;;;;3.78;3.03;;;17.80;70.00;;;;;;5041583;27;95793;-57
2021/08/22 12:27:31;;;;;;;3.67;3.28;;;17.80;70.00;;;;;;5022605;27;95728;-57
2021/08/22 12:30:11;;;;;;;3.33;3.03;;;17.80;70.00;;;;;;5018747;27;95739;-55
2021/08/22 12:32:44;;;;;;;5.40;2.95;;;17.80;70.00;;;;;;5015864;27;96154;-57
2021/08/22 12:35:15;;;;;;;4.70;3.28;;;17.70;70.00;;;;;;5031303;27;95734;-58
2021/08/22 12:37:47;;;;;;;3.85;2.65;;;17.70;70.00;;;;;;5030950;28;95571;-57
2021/08/22 12:40:25;;;;;;;3.92;3.42;;;17.70;70.00;;;;;;5030665;27;98550;-57
2021/08/22 12:42:58;;;;;;;3.70;3.15;;;17.70;70.00;;;;;;5029359;28;95952;-57
2021/08/22 12:45:29;;;;;;;3.50;2.60;;;17.70;70.00;;;;;;5016536;27;95936;-60
2021/08/22 12:47:59;;;;;;;2.88;2.55;;;17.70;70.00;;;;;;5029687;27;96014;-58
2021/08/22 12:50:29;;;;;;;2.55;2.35;;;17.70;70.00;;;;;;5030768;28;95800;-57
2021/08/22 12:52:58;;;;;;;2.85;2.60;;;17.70;69.90;;;;;;5029996;27;96360;-58
2021/08/22 12:55:31;;;;;;;2.38;2.17;;;17.70;69.90;;;;;;5045068;27;96395;-58
2021/08/22 12:58:02;;;;;;;2.78;2.22;;;17.70;69.90;;;;;;5029452;27;95964;-58
2021/08/22 13:00:31;;;;;;;2.70;2.40;;;17.60;69.90;;;;;;5026376;28;95907;-57
2021/08/22 13:03:02;;;;;;;3.70;2.50;;;17.60;69.90;;;;;;5030674;27;95846;-57
2021/08/22 13:05:32;;;;;;;2.92;2.20;;;17.60;69.90;;;;;;5023716;27;95716;-58
2021/08/22 13:08:03;;;;;;;2.63;2.40;;;17.60;70.00;;;;;;5031102;27;95610;-58
2021/08/22 13:10:36;;;;;;;3.20;2.17;;;17.60;70.00;;;;;;5031139;28;95769;-58
2021/08/22 13:13:06;;;;;;;2.42;2.22;;;17.60;70.00;;;;;;5029049;27;95914;-59
2021/08/22 13:15:38;;;;;;;1.85;1.73;;;17.60;69.90;;;;;;5024460;28;96390;-58
2021/08/22 13:18:11;;;;;;;2.70;2.22;;;17.60;69.90;;;;;;5032878;27;95161;-58
2021/08/22 13:20:42;;;;;;;2.58;2.38;;;17.60;70.00;;;;;;5030835;28;95951;-58
2021/08/22 13:23:14;;;;;;;2.10;1.90;;;17.60;69.90;;;;;;5030155;27;95918;-59
2021/08/22 13:25:45;;;;;;;2.17;1.90;;;17.60;69.90;;;;;;5030031;28;95739;-59